aviador You're here:

KFOK Decoded Metar

WEST HAMPTON BEACH in NY, USA
Report Time2017-09-21 18:53:00
UTC Time2017-09-21 19:28:26
Flight Rules vfr VFR
Wind360° at 12 Gusting to 20 kt
W.Decomp.*RWY 01: 12.0 kt HW 0.6 kt RCW
RWY 33: 8.8 kt HW 8.2 kt RCW
RWY 06: 8.2 kt HW 8.8 kt LCW
Visibility9999 m
Phenomena:N/A
Clouds:N/A
Expected CloudBase > 2,400 ft AGL from Temp-Dew spread
CeilingNone
Temp22°C (ISA +7)
Dew Point16°C (69% RH)
AAT19.7°C
QNH1015 hPa
Density Alt1,122 ft
Elevation108 ft
Report Wrong Elevation
Raw Report
METAR KFOK 211853Z 36012G20KT 10SM CLR 22/16 A2996 RMK AO2 SLP144 T02220161=

Extra information for KFOK:More info

Metar Taf Metar & Taf Last 4 Metars F.Rules Stats Wind Profile Meteogram Temp Stats Airport Information Weather charts Add Link Nearby VenuesMetar ALERT Operation Metar Decoded Social comments

AIRNAV info for KFOK